sensor_id;sensor_type;location;lat;lon;timestamp;P1;durP1;ratioP1;P2;durP2;ratioP2
37151;SDS011;23046;50.112;8.952;2023-08-06T00:00:01;2.00;;;1.90;;
37151;SDS011;23046;50.112;8.952;2023-08-06T00:00:12;2.00;;;1.90;;
37151;SDS011;23046;50.112;8.952;2023-08-06T00:00:25;1.92;;;1.83;;
37151;SDS011;23046;50.112;8.952;2023-08-06T00:00:35;1.80;;;1.70;;
37151;SDS011;23046;50.112;8.952;2023-08-06T00:00:45;1.70;;;1.60;;
37151;SDS011;23046;50.112;8.952;2023-08-06T00:00:56;1.70;;;1.60;;
37151;SDS011;23046;50.112;8.952;2023-08-06T00:01:06;1.90;;;1.70;;
37151;SDS011;23046;50.112;8.952;2023-08-06T00:01:16;1.90;;;1.70;;
37151;SDS011;23046;50.112;8.952;2023-08-06T00:01:28;1.88;;;1.75;;
37151;SDS011;23046;50.112;8.952;2023-08-06T00:01:38;1.73;;;1.63;;
37151;SDS011;23046;50.112;8.952;2023-08-06T00:01:49;1.80;;;1.70;;
37151;SDS011;23046;50.112;8.952;2023-08-06T00:01:59;1.73;;;1.63;;
37151;SDS011;23046;50.112;8.952;2023-08-06T00:02:09;1.90;;;1.80;;
37151;SDS011;23046;50.112;8.952;2023-08-06T00:02:19;1.93;;;1.83;;
37151;SDS011;23046;50.112;8.952;2023-08-06T00:02:29;2.00;;;1.90;;
37151;SDS011;23046;50.112;8.952;2023-08-06T00:02:39;1.90;;;1.80;;
37151;SDS011;23046;50.112;8.952;2023-08-06T00:02:50;1.77;;;1.65;;
37151;SDS011;23046;50.112;8.952;2023-08-06T00:03:00;1.90;;;1.60;;
37151;SDS011;23046;50.112;8.952;2023-08-06T00:03:10;2.20;;;1.50;;
37151;SDS011;23046;50.112;8.952;2023-08-06T00:03:20;1.83;;;1.50;;
37151;SDS011;23046;50.112;8.952;2023-08-06T00:03:30;1.70;;;1.60;;
37151;SDS011;23046;50.112;8.952;2023-08-06T00:03:41;1.70;;;1.60;;
37151;SDS011;23046;50.112;8.952;2023-08-06T00:03:51;1.67;;;1.58;;
37151;SDS011;23046;50.112;8.952;2023-08-06T00:04:01;1.70;;;1.60;;
37151;SDS011;23046;50.112;8.952;2023-08-06T00:04:11;2.03;;;1.60;;
37151;SDS011;23046;50.112;8.952;2023-08-06T00:04:22;2.37;;;1.80;;
37151;SDS011;23046;50.112;8.952;2023-08-06T00:04:32;2.50;;;1.70;;
37151;SDS011;23046;50.112;8.952;2023-08-06T00:04:42;1.80;;;1.70;;
37151;SDS011;23046;50.112;8.952;2023-08-06T00:04:52;1.70;;;1.60;;
37151;SDS011;23046;50.112;8.952;2023-08-06T00:05:02;1.70;;;1.60;;
37151;SDS011;23046;50.112;8.952;2023-08-06T00:05:13;1.70;;;1.60;;
37151;SDS011;23046;50.112;8.952;2023-08-06T00:05:23;1.60;;;1.50;;
37151;SDS011;23046;50.112;8.952;2023-08-06T00:05:33;1.67;;;1.57;;
37151;SDS011;23046;50.112;8.952;2023-08-06T00:05:43;1.77;;;1.67;;
37151;SDS011;23046;50.112;8.952;2023-08-06T00:05:54;1.80;;;1.70;;
37151;SDS011;23046;50.112;8.952;2023-08-06T00:06:07;1.80;;;1.70;;
37151;SDS011;23046;50.112;8.952;2023-08-06T00:06:17;1.80;;;1.70;;
37151;SDS011;23046;50.112;8.952;2023-08-06T00:06:27;1.67;;;1.58;;
37151;SDS011;23046;50.112;8.952;2023-08-06T00:06:37;1.77;;;1.67;;
37151;SDS011;23046;50.112;8.952;2023-08-06T00:06:47;1.90;;;1.80;;
37151;SDS011;23046;50.112;8.952;2023-08-06T00:06:58;2.17;;;2.03;;
37151;SDS011;23046;50.112;8.952;2023-08-06T00:07:08;2.00;;;1.90;;
37151;SDS011;23046;50.112;8.952;2023-08-06T00:07:18;1.90;;;1.80;;
37151;SDS011;23046;50.112;8.952;2023-08-06T00:07:28;1.80;;;1.70;;
37151;SDS011;23046;50.112;8.952;2023-08-06T00:07:38;1.80;;;1.70;;
37151;SDS011;23046;50.112;8.952;2023-08-06T00:07:49;1.90;;;1.80;;
37151;SDS011;23046;50.112;8.952;2023-08-06T00:07:59;1.87;;;1.77;;
37151;SDS011;23046;50.112;8.952;2023-08-06T00:08:09;1.80;;;1.70;;
37151;SDS011;23046;50.112;8.952;2023-08-06T00:08:19;1.73;;;1.63;;
37151;SDS011;23046;50.112;8.952;2023-08-06T00:08:29;1.70;;;1.60;;
37151;SDS011;23046;50.112;8.952;2023-08-06T00:08:40;2.30;;;1.73;;
37151;SDS011;23046;50.112;8.952;2023-08-06T00:08:50;2.30;;;1.67;;
37151;SDS011;23046;50.112;8.952;2023-08-06T00:09:00;2.42;;;1.77;;
37151;SDS011;23046;50.112;8.952;2023-08-06T00:09:10;1.90;;;1.80;;
37151;SDS011;23046;50.112;8.952;2023-08-06T00:09:20;2.10;;;1.90;;
37151;SDS011;23046;50.112;8.952;2023-08-06T00:09:31;2.00;;;1.80;;
37151;SDS011;23046;50.112;8.952;2023-08-06T00:09:41;1.80;;;1.70;;
37151;SDS011;23046;50.112;8.952;2023-08-06T00:09:51;1.80;;;1.70;;
37151;SDS011;23046;50.112;8.952;2023-08-06T00:10:01;1.75;;;1.65;;
37151;SDS011;23046;50.112;8.952;2023-08-06T00:10:12;1.70;;;1.60;;
37151;SDS011;23046;50.112;8.952;2023-08-06T00:10:22;1.70;;;1.60;;
37151;SDS011;23046;50.112;8.952;2023-08-06T00:10:32;1.77;;;1.67;;
37151;SDS011;23046;50.112;8.952;2023-08-06T00:10:42;1.83;;;1.73;;
37151;SDS011;23046;50.112;8.952;2023-08-06T00:10:52;2.53;;;1.95;;
37151;SDS011;23046;50.112;8.952;2023-08-06T00:11:02;2.67;;;1.93;;
37151;SDS011;23046;50.112;8.952;2023-08-06T00:11:13;3.90;;;1.87;;
37151;SDS011;23046;50.112;8.952;2023-08-06T00:11:23;2.67;;;1.80;;
37151;SDS011;23046;50.112;8.952;2023-08-06T00:11:33;2.60;;;1.88;;
37151;SDS011;23046;50.112;8.952;2023-08-06T00:11:44;1.90;;;1.80;;
37151;SDS011;23046;50.112;8.952;2023-08-06T00:11:56;1.83;;;1.73;;
37151;SDS011;23046;50.112;8.952;2023-08-06T00:12:06;1.80;;;1.70;;
37151;SDS011;23046;50.112;8.952;2023-08-06T00:12:17;1.80;;;1.70;;
37151;SDS011;23046;50.112;8.952;2023-08-06T00:12:27;1.90;;;1.80;;
37151;SDS011;23046;50.112;8.952;2023-08-06T00:12:37;1.93;;;1.80;;
37151;SDS011;23046;50.112;8.952;2023-08-06T00:12:47;1.80;;;1.70;;
37151;SDS011;23046;50.112;8.952;2023-08-06T00:12:58;1.63;;;1.52;;
37151;SDS011;23046;50.112;8.952;2023-08-06T00:13:08;1.75;;;1.65;;
37151;SDS011;23046;50.112;8.952;2023-08-06T00:13:19;1.90;;;1.80;;
37151;SDS011;23046;50.112;8.952;2023-08-06T00:13:29;1.90;;;1.80;;
37151;SDS011;23046;50.112;8.952;2023-08-06T00:13:39;1.90;;;1.70;;
37151;SDS011;23046;50.112;8.952;2023-08-06T00:13:49;1.93;;;1.73;;
37151;SDS011;23046;50.112;8.952;2023-08-06T00:14:00;2.03;;;1.80;;
37151;SDS011;23046;50.112;8.952;2023-08-06T00:14:10;2.10;;;1.70;;
37151;SDS011;23046;50.112;8.952;2023-08-06T00:14:20;2.90;;;1.80;;
37151;SDS011;23046;50.112;8.952;2023-08-06T00:14:30;2.50;;;1.77;;
37151;SDS011;23046;50.112;8.952;2023-08-06T00:14:40;2.08;;;1.88;;
37151;SDS011;23046;50.112;8.952;2023-08-06T00:14:51;1.80;;;1.70;;
37151;SDS011;23046;50.112;8.952;2023-08-06T00:15:01;1.70;;;1.60;;
37151;SDS011;23046;50.112;8.952;2023-08-06T00:15:12;1.70;;;1.60;;
37151;SDS011;23046;50.112;8.952;2023-08-06T00:15:22;1.70;;;1.60;;
37151;SDS011;23046;50.112;8.952;2023-08-06T00:15:32;1.87;;;1.77;;
37151;SDS011;23046;50.112;8.952;2023-08-06T00:15:42;1.80;;;1.70;;
37151;SDS011;23046;50.112;8.952;2023-08-06T00:15:52;2.13;;;1.80;;
37151;SDS011;23046;50.112;8.952;2023-08-06T00:16:09;1.80;;;1.70;;
37151;SDS011;23046;50.112;8.952;2023-08-06T00:16:19;1.80;;;1.70;;
37151;SDS011;23046;50.112;8.952;2023-08-06T00:16:29;2.00;;;1.80;;
37151;SDS011;23046;50.112;8.952;2023-08-06T00:16:40;3.00;;;1.80;;
37151;SDS011;23046;50.112;8.952;2023-08-06T00:16:50;3.10;;;1.80;;
37151;SDS011;23046;50.112;8.952;2023-08-06T00:17:00;2.50;;;1.67;;
37151;SDS011;23046;50.112;8.952;2023-08-06T00:17:10;1.77;;;1.60;;
37151;SDS011;23046;50.112;8.952;2023-08-06T00:17:20;1.70;;;1.60;;
37151;SDS011;23046;50.112;8.952;2023-08-06T00:17:31;1.80;;;1.70;;
37151;SDS011;23046;50.112;8.952;2023-08-06T00:17:41;1.85;;;1.65;;
37151;SDS011;23046;50.112;8.952;2023-08-06T00:17:51;1.80;;;1.60;;
37151;SDS011;23046;50.112;8.952;2023-08-06T00:18:01;1.90;;;1.60;;
37151;SDS011;23046;50.112;8.952;2023-08-06T00:18:12;1.70;;;1.60;;
37151;SDS011;23046;50.112;8.952;2023-08-06T00:18:22;1.67;;;1.58;;
37151;SDS011;23046;50.112;8.952;2023-08-06T00:18:32;1.80;;;1.70;;
37151;SDS011;23046;50.112;8.952;2023-08-06T00:18:42;1.80;;;1.70;;
37151;SDS011;23046;50.112;8.952;2023-08-06T00:18:52;2.13;;;1.77;;
37151;SDS011;23046;50.112;8.952;2023-08-06T00:19:02;2.80;;;1.77;;
37151;SDS011;23046;50.112;8.952;2023-08-06T00:19:13;2.67;;;1.80;;
37151;SDS011;23046;50.112;8.952;2023-08-06T00:19:23;3.22;;;1.80;;
37151;SDS011;23046;50.112;8.952;2023-08-06T00:19:33;2.53;;;1.70;;
37151;SDS011;23046;50.112;8.952;2023-08-06T00:19:43;2.33;;;1.77;;
37151;SDS011;23046;50.112;8.952;2023-08-06T00:19:53;1.83;;;1.73;;
37151;SDS011;23046;50.112;8.952;2023-08-06T00:20:04;2.00;;;1.90;;
37151;SDS011;23046;50.112;8.952;2023-08-06T00:20:16;1.92;;;1.83;;
37151;SDS011;23046;50.112;8.952;2023-08-06T00:20:26;1.90;;;1.80;;
37151;SDS011;23046;50.112;8.952;2023-08-06T00:20:38;1.75;;;1.65;;
37151;SDS011;23046;50.112;8.952;2023-08-06T00:20:48;1.60;;;1.50;;
37151;SDS011;23046;50.112;8.952;2023-08-06T00:20:59;1.60;;;1.50;;
37151;SDS011;23046;50.112;8.952;2023-08-06T00:21:09;1.70;;;1.60;;
37151;SDS011;23046;50.112;8.952;2023-08-06T00:21:22;2.00;;;1.73;;
37151;SDS011;23046;50.112;8.952;2023-08-06T00:21:32;1.75;;;1.60;;
37151;SDS011;23046;50.112;8.952;2023-08-06T00:21:42;1.60;;;1.50;;
37151;SDS011;23046;50.112;8.952;2023-08-06T00:21:52;1.63;;;1.53;;
37151;SDS011;23046;50.112;8.952;2023-08-06T00:22:03;1.80;;;1.70;;
37151;SDS011;23046;50.112;8.952;2023-08-06T00:22:13;1.90;;;1.80;;
37151;SDS011;23046;50.112;8.952;2023-08-06T00:22:23;1.80;;;1.70;;
37151;SDS011;23046;50.112;8.952;2023-08-06T00:22:34;1.83;;;1.73;;
37151;SDS011;23046;50.112;8.952;2023-08-06T00:22:44;1.88;;;1.77;;
37151;SDS011;23046;50.112;8.952;2023-08-06T00:22:54;2.10;;;1.90;;
37151;SDS011;23046;50.112;8.952;2023-08-06T00:23:05;2.03;;;1.83;;
37151;SDS011;23046;50.112;8.952;2023-08-06T00:23:15;2.10;;;1.90;;
37151;SDS011;23046;50.112;8.952;2023-08-06T00:23:25;1.98;;;1.80;;
37151;SDS011;23046;50.112;8.952;2023-08-06T00:23:35;1.97;;;1.73;;
37151;SDS011;23046;50.112;8.952;2023-08-06T00:23:45;3.10;;;1.70;;
37151;SDS011;23046;50.112;8.952;2023-08-06T00:23:56;2.70;;;1.77;;
37151;SDS011;23046;50.112;8.952;2023-08-06T00:24:06;2.63;;;1.80;;
37151;SDS011;23046;50.112;8.952;2023-08-06T00:24:16;1.90;;;1.80;;
37151;SDS011;23046;50.112;8.952;2023-08-06T00:24:26;1.80;;;1.70;;
37151;SDS011;23046;50.112;8.952;2023-08-06T00:24:36;1.80;;;1.70;;
37151;SDS011;23046;50.112;8.952;2023-08-06T00:24:47;1.70;;;1.60;;
37151;SDS011;23046;50.112;8.952;2023-08-06T00:24:57;1.70;;;1.60;;
37151;SDS011;23046;50.112;8.952;2023-08-06T00:25:07;1.70;;;1.60;;
37151;SDS011;23046;50.112;8.952;2023-08-06T00:25:18;1.80;;;1.70;;
37151;SDS011;23046;50.112;8.952;2023-08-06T00:25:28;1.90;;;1.80;;
37151;SDS011;23046;50.112;8.952;2023-08-06T00:25:38;1.80;;;1.70;;
37151;SDS011;23046;50.112;8.952;2023-08-06T00:25:48;1.75;;;1.65;;
37151;SDS011;23046;50.112;8.952;2023-08-06T00:25:58;1.80;;;1.70;;
37151;SDS011;23046;50.112;8.952;2023-08-06T00:26:09;1.90;;;1.80;;
37151;SDS011;23046;50.112;8.952;2023-08-06T00:26:19;2.07;;;1.90;;
37151;SDS011;23046;50.112;8.952;2023-08-06T00:26:29;2.10;;;1.90;;
37151;SDS011;23046;50.112;8.952;2023-08-06T00:26:40;2.00;;;1.83;;
37151;SDS011;23046;50.112;8.952;2023-08-06T00:26:50;1.90;;;1.80;;
37151;SDS011;23046;50.112;8.952;2023-08-06T00:27:00;1.80;;;1.70;;
37151;SDS011;23046;50.112;8.952;2023-08-06T00:27:10;1.75;;;1.65;;
37151;SDS011;23046;50.112;8.952;2023-08-06T00:27:21;1.73;;;1.63;;
37151;SDS011;23046;50.112;8.952;2023-08-06T00:27:31;1.70;;;1.60;;
37151;SDS011;23046;50.112;8.952;2023-08-06T00:27:42;1.65;;;1.55;;
37151;SDS011;23046;50.112;8.952;2023-08-06T00:27:52;1.60;;;1.50;;
37151;SDS011;23046;50.112;8.952;2023-08-06T00:28:02;2.10;;;1.60;;
37151;SDS011;23046;50.112;8.952;2023-08-06T00:28:13;2.20;;;1.70;;
37151;SDS011;23046;50.112;8.952;2023-08-06T00:28:23;1.97;;;1.73;;
37151;SDS011;23046;50.112;8.952;2023-08-06T00:28:33;2.40;;;1.70;;
37151;SDS011;23046;50.112;8.952;2023-08-06T00:28:43;2.30;;;1.73;;
37151;SDS011;23046;50.112;8.952;2023-08-06T00:28:54;2.47;;;1.70;;
37151;SDS011;23046;50.112;8.952;2023-08-06T00:29:04;1.90;;;1.80;;
37151;SDS011;23046;50.112;8.952;2023-08-06T00:29:14;1.93;;;1.73;;
37151;SDS011;23046;50.112;8.952;2023-08-06T00:29:26;1.70;;;1.60;;
37151;SDS011;23046;50.112;8.952;2023-08-06T00:29:36;1.70;;;1.60;;
37151;SDS011;23046;50.112;8.952;2023-08-06T00:29:47;1.70;;;1.60;;
37151;SDS011;23046;50.112;8.952;2023-08-06T00:29:57;1.70;;;1.60;;
37151;SDS011;23046;50.112;8.952;2023-08-06T00:30:07;1.70;;;1.60;;
37151;SDS011;23046;50.112;8.952;2023-08-06T00:30:17;1.80;;;1.70;;
37151;SDS011;23046;50.112;8.952;2023-08-06T00:30:27;1.80;;;1.70;;
37151;SDS011;23046;50.112;8.952;2023-08-06T00:30:38;1.67;;;1.58;;
37151;SDS011;23046;50.112;8.952;2023-08-06T00:30:55;1.73;;;1.63;;
37151;SDS011;23046;50.112;8.952;2023-08-06T00:31:05;1.80;;;1.70;;
37151;SDS011;23046;50.112;8.952;2023-08-06T00:31:15;1.80;;;1.70;;
37151;SDS011;23046;50.112;8.952;2023-08-06T00:31:25;1.90;;;1.80;;
37151;SDS011;23046;50.112;8.952;2023-08-06T00:31:36;1.95;;;1.80;;
37151;SDS011;23046;50.112;8.952;2023-08-06T00:31:46;2.30;;;1.87;;
37151;SDS011;23046;50.112;8.952;2023-08-06T00:31:56;2.33;;;1.80;;
37151;SDS011;23046;50.112;8.952;2023-08-06T00:32:08;2.10;;;1.90;;
37151;SDS011;23046;50.112;8.952;2023-08-06T00:32:19;1.95;;;1.83;;
37151;SDS011;23046;50.112;8.952;2023-08-06T00:32:29;1.80;;;1.70;;
37151;SDS011;23046;50.112;8.952;2023-08-06T00:32:39;1.70;;;1.60;;
37151;SDS011;23046;50.112;8.952;2023-08-06T00:32:50;1.60;;;1.50;;
37151;SDS011;23046;50.112;8.952;2023-08-06T00:33:00;1.70;;;1.60;;
37151;SDS011;23046;50.112;8.952;2023-08-06T00:33:10;1.63;;;1.53;;
37151;SDS011;23046;50.112;8.952;2023-08-06T00:33:24;1.73;;;1.63;;
37151;SDS011;23046;50.112;8.952;2023-08-06T00:33:35;1.73;;;1.63;;
37151;SDS011;23046;50.112;8.952;2023-08-06T00:33:45;1.73;;;1.63;;
37151;SDS011;23046;50.112;8.952;2023-08-06T00:33:55;1.80;;;1.70;;
37151;SDS011;23046;50.112;8.952;2023-08-06T00:34:05;1.90;;;1.80;;
37151;SDS011;23046;50.112;8.952;2023-08-06T00:34:15;1.87;;;1.77;;
37151;SDS011;23046;50.112;8.952;2023-08-06T00:34:26;1.90;;;1.80;;
37151;SDS011;23046;50.112;8.952;2023-08-06T00:34:36;1.70;;;1.60;;
37151;SDS011;23046;50.112;8.952;2023-08-06T00:34:46;1.60;;;1.50;;
37151;SDS011;23046;50.112;8.952;2023-08-06T00:34:58;1.60;;;1.50;;
37151;SDS011;23046;50.112;8.952;2023-08-06T00:35:08;1.88;;;1.77;;
37151;SDS011;23046;50.112;8.952;2023-08-06T00:35:18;1.90;;;1.80;;
37151;SDS011;23046;50.112;8.952;2023-08-06T00:35:29;1.93;;;1.83;;
37151;SDS011;23046;50.112;8.952;2023-08-06T00:35:39;1.70;;;1.60;;
37151;SDS011;23046;50.112;8.952;2023-08-06T00:35:50;1.70;;;1.60;;
37151;SDS011;23046;50.112;8.952;2023-08-06T00:36:00;1.92;;;1.63;;
37151;SDS011;23046;50.112;8.952;2023-08-06T00:36:10;2.07;;;1.70;;
37151;SDS011;23046;50.112;8.952;2023-08-06T00:36:20;2.20;;;1.80;;
37151;SDS011;23046;50.112;8.952;2023-08-06T00:36:30;2.00;;;1.90;;
37151;SDS011;23046;50.112;8.952;2023-08-06T00:36:41;1.90;;;1.80;;
37151;SDS011;23046;50.112;8.952;2023-08-06T00:36:51;1.83;;;1.73;;
37151;SDS011;23046;50.112;8.952;2023-08-06T00:37:01;1.83;;;1.73;;
37151;SDS011;23046;50.112;8.952;2023-08-06T00:37:11;1.97;;;1.70;;
37151;SDS011;23046;50.112;8.952;2023-08-06T00:37:23;1.90;;;1.70;;
37151;SDS011;23046;50.112;8.952;2023-08-06T00:37:33;1.80;;;1.70;;
37151;SDS011;23046;50.112;8.952;2023-08-06T00:37:43;1.95;;;1.75;;
37151;SDS011;23046;50.112;8.952;2023-08-06T00:37:54;2.53;;;1.80;;
37151;SDS011;23046;50.112;8.952;2023-08-06T00:38:04;3.58;;;1.88;;
37151;SDS011;23046;50.112;8.952;2023-08-06T00:38:14;3.25;;;1.80;;
37151;SDS011;23046;50.112;8.952;2023-08-06T00:38:24;3.03;;;1.63;;
37151;SDS011;23046;50.112;8.952;2023-08-06T00:38:35;2.33;;;1.50;;
37151;SDS011;23046;50.112;8.952;2023-08-06T00:38:45;2.27;;;1.50;;
37151;SDS011;23046;50.112;8.952;2023-08-06T00:38:55;1.53;;;1.40;;
37151;SDS011;23046;50.112;8.952;2023-08-06T00:39:05;1.70;;;1.60;;
37151;SDS011;23046;50.112;8.952;2023-08-06T00:39:17;1.90;;;1.70;;
37151;SDS011;23046;50.112;8.952;2023-08-06T00:39:27;1.83;;;1.67;;
37151;SDS011;23046;50.112;8.952;2023-08-06T00:39:37;1.87;;;1.77;;
37151;SDS011;23046;50.112;8.952;2023-08-06T00:39:47;2.03;;;1.93;;
37151;SDS011;23046;50.112;8.952;2023-08-06T00:39:57;2.45;;;1.92;;
37151;SDS011;23046;50.112;8.952;2023-08-06T00:40:08;2.40;;;1.90;;
37151;SDS011;23046;50.112;8.952;2023-08-06T00:40:19;2.30;;;1.80;;
37151;SDS011;23046;50.112;8.952;2023-08-06T00:40:30;1.77;;;1.67;;
37151;SDS011;23046;50.112;8.952;2023-08-06T00:40:40;1.70;;;1.60;;
37151;SDS011;23046;50.112;8.952;2023-08-06T00:40:50;1.80;;;1.70;;
37151;SDS011;23046;50.112;8.952;2023-08-06T00:41:01;1.87;;;1.77;;
37151;SDS011;23046;50.112;8.952;2023-08-06T00:41:11;1.87;;;1.77;;
37151;SDS011;23046;50.112;8.952;2023-08-06T00:41:21;1.87;;;1.77;;
37151;SDS011;23046;50.112;8.952;2023-08-06T00:41:31;1.83;;;1.73;;
37151;SDS011;23046;50.112;8.952;2023-08-06T00:41:42;1.90;;;1.80;;
37151;SDS011;23046;50.112;8.952;2023-08-06T00:41:52;1.83;;;1.73;;
37151;SDS011;23046;50.112;8.952;2023-08-06T00:42:02;1.87;;;1.77;;
37151;SDS011;23046;50.112;8.952;2023-08-06T00:42:12;1.73;;;1.63;;
37151;SDS011;23046;50.112;8.952;2023-08-06T00:42:22;1.73;;;1.63;;
37151;SDS011;23046;50.112;8.952;2023-08-06T00:42:34;1.65;;;1.55;;
37151;SDS011;23046;50.112;8.952;2023-08-06T00:42:45;1.70;;;1.60;;
37151;SDS011;23046;50.112;8.952;2023-08-06T00:42:56;1.88;;;1.77;;
37151;SDS011;23046;50.112;8.952;2023-08-06T00:43:06;1.93;;;1.83;;
37151;SDS011;23046;50.112;8.952;2023-08-06T00:43:16;1.87;;;1.77;;
37151;SDS011;23046;50.112;8.952;2023-08-06T00:43:26;1.70;;;1.60;;
37151;SDS011;23046;50.112;8.952;2023-08-06T00:43:37;1.60;;;1.50;;
37151;SDS011;23046;50.112;8.952;2023-08-06T00:43:47;2.10;;;1.53;;
37151;SDS011;23046;50.112;8.952;2023-08-06T00:43:57;2.00;;;1.57;;
37151;SDS011;23046;50.112;8.952;2023-08-06T00:44:07;2.07;;;1.53;;
37151;SDS011;23046;50.112;8.952;2023-08-06T00:44:18;1.70;;;1.60;;
37151;SDS011;23046;50.112;8.952;2023-08-06T00:44:28;1.80;;;1.70;;
37151;SDS011;23046;50.112;8.952;2023-08-06T00:44:38;1.90;;;1.80;;
37151;SDS011;23046;50.112;8.952;2023-08-06T00:44:49;1.83;;;1.73;;
37151;SDS011;23046;50.112;8.952;2023-08-06T00:44:59;1.87;;;1.77;;
37151;SDS011;23046;50.112;8.952;2023-08-06T00:45:09;3.20;;;1.80;;
37151;SDS011;23046;50.112;8.952;2023-08-06T00:45:22;3.30;;;1.70;;
37151;SDS011;23046;50.112;8.952;2023-08-06T00:45:33;2.25;;;1.58;;
37151;SDS011;23046;50.112;8.952;2023-08-06T00:45:44;1.80;;;1.70;;
37151;SDS011;23046;50.112;8.952;2023-08-06T00:45:54;2.87;;;1.80;;
37151;SDS011;23046;50.112;8.952;2023-08-06T00:46:05;3.03;;;1.70;;
37151;SDS011;23046;50.112;8.952;2023-08-06T00:46:16;3.00;;;1.60;;
37151;SDS011;23046;50.112;8.952;2023-08-06T00:46:26;1.60;;;1.50;;
37151;SDS011;23046;50.112;8.952;2023-08-06T00:46:36;1.70;;;1.60;;
37151;SDS011;23046;50.112;8.952;2023-08-06T00:46:47;1.65;;;1.55;;
37151;SDS011;23046;50.112;8.952;2023-08-06T00:46:59;2.90;;;1.70;;
37151;SDS011;23046;50.112;8.952;2023-08-06T00:47:10;2.67;;;1.65;;
37151;SDS011;23046;50.112;8.952;2023-08-06T00:47:20;2.77;;;1.60;;
37151;SDS011;23046;50.112;8.952;2023-08-06T00:47:30;1.70;;;1.60;;
37151;SDS011;23046;50.112;8.952;2023-08-06T00:47:41;2.03;;;1.60;;
37151;SDS011;23046;50.112;8.952;2023-08-06T00:47:51;1.90;;;1.67;;
37151;SDS011;23046;50.112;8.952;2023-08-06T00:48:03;2.05;;;1.70;;
37151;SDS011;23046;50.112;8.952;2023-08-06T00:48:13;1.70;;;1.60;;
37151;SDS011;23046;50.112;8.952;2023-08-06T00:48:24;1.60;;;1.50;;
37151;SDS011;23046;50.112;8.952;2023-08-06T00:48:34;1.60;;;1.50;;
37151;SDS011;23046;50.112;8.952;2023-08-06T00:48:44;1.70;;;1.60;;
37151;SDS011;23046;50.112;8.952;2023-08-06T00:48:55;1.73;;;1.63;;
37151;SDS011;23046;50.112;8.952;2023-08-06T00:49:05;1.85;;;1.75;;
37151;SDS011;23046;50.112;8.952;2023-08-06T00:49:16;1.90;;;1.80;;
37151;SDS011;23046;50.112;8.952;2023-08-06T00:49:26;2.10;;;1.70;;
37151;SDS011;23046;50.112;8.952;2023-08-06T00:49:36;1.97;;;1.60;;
37151;SDS011;23046;50.112;8.952;2023-08-06T00:49:46;2.10;;;1.70;;
37151;SDS011;23046;50.112;8.952;2023-08-06T00:49:57;1.90;;;1.80;;
37151;SDS011;23046;50.112;8.952;2023-08-06T00:50:08;1.88;;;1.77;;
37151;SDS011;23046;50.112;8.952;2023-08-06T00:50:18;1.60;;;1.50;;
37151;SDS011;23046;50.112;8.952;2023-08-06T00:50:31;1.60;;;1.50;;
37151;SDS011;23046;50.112;8.952;2023-08-06T00:50:41;1.80;;;1.70;;
37151;SDS011;23046;50.112;8.952;2023-08-06T00:50:51;2.07;;;1.87;;
37151;SDS011;23046;50.112;8.952;2023-08-06T00:51:01;2.17;;;1.93;;
37151;SDS011;23046;50.112;8.952;2023-08-06T00:51:12;2.03;;;1.80;;
37151;SDS011;23046;50.112;8.952;2023-08-06T00:51:22;1.90;;;1.80;;
37151;SDS011;23046;50.112;8.952;2023-08-06T00:51:34;1.88;;;1.77;;
37151;SDS011;23046;50.112;8.952;2023-08-06T00:51:46;1.90;;;1.80;;
37151;SDS011;23046;50.112;8.952;2023-08-06T00:51:57;1.73;;;1.63;;
37151;SDS011;23046;50.112;8.952;2023-08-06T00:52:07;1.70;;;1.60;;
37151;SDS011;23046;50.112;8.952;2023-08-06T00:52:20;1.90;;;1.70;;
37151;SDS011;23046;50.112;8.952;2023-08-06T00:52:30;2.03;;;1.77;;
37151;SDS011;23046;50.112;8.952;2023-08-06T00:52:41;2.00;;;1.60;;
37151;SDS011;23046;50.112;8.952;2023-08-06T00:52:51;1.70;;;1.60;;
37151;SDS011;23046;50.112;8.952;2023-08-06T00:53:02;2.10;;;1.70;;
37151;SDS011;23046;50.112;8.952;2023-08-06T00:53:12;3.40;;;1.70;;
37151;SDS011;23046;50.112;8.952;2023-08-06T00:53:24;3.90;;;1.80;;
37151;SDS011;23046;50.112;8.952;2023-08-06T00:53:34;3.20;;;1.70;;
37151;SDS011;23046;50.112;8.952;2023-08-06T00:53:44;2.42;;;1.70;;
37151;SDS011;23046;50.112;8.952;2023-08-06T00:53:56;2.13;;;1.60;;
37151;SDS011;23046;50.112;8.952;2023-08-06T00:54:06;2.07;;;1.63;;
37151;SDS011;23046;50.112;8.952;2023-08-06T00:54:17;1.70;;;1.60;;
37151;SDS011;23046;50.112;8.952;2023-08-06T00:54:27;1.63;;;1.53;;
37151;SDS011;23046;50.112;8.952;2023-08-06T00:54:37;1.70;;;1.60;;
37151;SDS011;23046;50.112;8.952;2023-08-06T00:54:47;1.80;;;1.70;;
37151;SDS011;23046;50.112;8.952;2023-08-06T00:54:59;1.75;;;1.65;;
37151;SDS011;23046;50.112;8.952;2023-08-06T00:55:09;1.70;;;1.60;;
37151;SDS011;23046;50.112;8.952;2023-08-06T00:55:20;1.88;;;1.77;;
37151;SDS011;23046;50.112;8.952;2023-08-06T00:55:30;1.93;;;1.83;;
37151;SDS011;23046;50.112;8.952;2023-08-06T00:55:40;1.93;;;1.80;;
37151;SDS011;23046;50.112;8.952;2023-08-06T00:55:52;1.90;;;1.80;;
37151;SDS011;23046;50.112;8.952;2023-08-06T00:56:02;1.80;;;1.70;;
37151;SDS011;23046;50.112;8.952;2023-08-06T00:56:13;1.90;;;1.80;;
37151;SDS011;23046;50.112;8.952;2023-08-06T00:56:23;1.80;;;1.70;;
37151;SDS011;23046;50.112;8.952;2023-08-06T00:56:34;1.90;;;1.80;;
37151;SDS011;23046;50.112;8.952;2023-08-06T00:56:45;1.70;;;1.60;;
37151;SDS011;23046;50.112;8.952;2023-08-06T00:56:56;3.33;;;1.70;;
37151;SDS011;23046;50.112;8.952;2023-08-06T00:57:08;3.08;;;1.70;;
37151;SDS011;23046;50.112;8.952;2023-08-06T00:57:19;2.60;;;1.80;;
37151;SDS011;23046;50.112;8.952;2023-08-06T00:57:30;1.90;;;1.80;;
37151;SDS011;23046;50.112;8.952;2023-08-06T00:57:40;1.90;;;1.80;;
37151;SDS011;23046;50.112;8.952;2023-08-06T00:57:51;1.70;;;1.60;;
37151;SDS011;23046;50.112;8.952;2023-08-06T00:58:02;1.77;;;1.67;;
37151;SDS011;23046;50.112;8.952;2023-08-06T00:58:13;1.80;;;1.70;;
37151;SDS011;23046;50.112;8.952;2023-08-06T00:58:24;1.90;;;1.80;;
37151;SDS011;23046;50.112;8.952;2023-08-06T00:58:35;1.80;;;1.70;;
37151;SDS011;23046;50.112;8.952;2023-08-06T00:58:46;1.73;;;1.63;;
37151;SDS011;23046;50.112;8.952;2023-08-06T00:58:56;1.70;;;1.60;;
37151;SDS011;23046;50.112;8.952;2023-08-06T00:59:07;1.60;;;1.50;;
37151;SDS011;23046;50.112;8.952;2023-08-06T00:59:17;1.60;;;1.50;;
37151;SDS011;23046;50.112;8.952;2023-08-06T00:59:28;1.50;;;1.40;;
37151;SDS011;23046;50.112;8.952;2023-08-06T00:59:39;1.60;;;1.50;;
37151;SDS011;23046;50.112;8.952;2023-08-06T00:59:50;1.60;;;1.50;;
37151;SDS011;23046;50.112;8.952;2023-08-06T01:00:01;1.60;;;1.50;;
37151;SDS011;23046;50.112;8.952;2023-08-06T01:00:11;1.50;;;1.40;;
37151;SDS011;23046;50.112;8.952;2023-08-06T01:00:22;1.47;;;1.37;;
37151;SDS011;23046;50.112;8.952;2023-08-06T01:00:33;1.52;;;1.42;;
37151;SDS011;23046;50.112;8.952;2023-08-06T01:00:43;1.70;;;1.60;;
37151;SDS011;23046;50.112;8.952;2023-08-06T01:00:53;1.73;;;1.63;;
37151;SDS011;23046;50.112;8.952;2023-08-06T01:01:04;1.85;;;1.75;;
37151;SDS011;23046;50.112;8.952;2023-08-06T01:01:14;1.83;;;1.73;;
37151;SDS011;23046;50.112;8.952;2023-08-06T01:01:24;1.73;;;1.63;;
37151;SDS011;23046;50.112;8.952;2023-08-06T01:01:34;1.63;;;1.53;;
37151;SDS011;23046;50.112;8.952;2023-08-06T01:01:45;1.67;;;1.57;;
37151;SDS011;23046;50.112;8.952;2023-08-06T01:01:55;1.70;;;1.60;;
37151;SDS011;23046;50.112;8.952;2023-08-06T01:02:05;1.70;;;1.60;;
37151;SDS011;23046;50.112;8.952;2023-08-06T01:02:16;1.80;;;1.70;;
37151;SDS011;23046;50.112;8.952;2023-08-06T01:02:26;1.80;;;1.70;;
37151;SDS011;23046;50.112;8.952;2023-08-06T01:02:37;1.70;;;1.60;;
37151;SDS011;23046;50.112;8.952;2023-08-06T01:02:48;1.60;;;1.50;;
37151;SDS011;23046;50.112;8.952;2023-08-06T01:02:58;1.50;;;1.40;;
37151;SDS011;23046;50.112;8.952;2023-08-06T01:03:09;1.57;;;1.47;;